createdAt,value
2023-05-19T00:02:18.189Z,6.93
2023-05-19T00:04:45.777Z,7.00
2023-05-19T00:07:14.538Z,6.43
2023-05-19T00:09:42.130Z,6.97
2023-05-19T00:12:10.670Z,6.85
2023-05-19T00:14:38.266Z,6.63
2023-05-19T00:17:05.952Z,7.10
2023-05-19T00:19:34.969Z,6.47
2023-05-19T00:22:02.339Z,7.40
2023-05-19T00:24:29.850Z,6.32
2023-05-19T00:26:57.214Z,6.38
2023-05-19T00:29:24.574Z,6.45
2023-05-19T00:31:52.039Z,6.50
2023-05-19T00:34:19.565Z,6.13
2023-05-19T00:36:48.290Z,6.03
2023-05-19T00:39:15.937Z,6.00
2023-05-19T00:41:43.320Z,6.55
2023-05-19T00:44:10.614Z,7.22
2023-05-19T00:46:38.174Z,6.65
2023-05-19T00:49:05.593Z,6.90
2023-05-19T00:51:33.093Z,6.22
2023-05-19T00:54:01.816Z,6.72
2023-05-19T00:56:29.236Z,6.95
2023-05-19T00:58:56.984Z,7.05
2023-05-19T01:01:26.607Z,6.22
2023-05-19T01:03:56.682Z,6.70
2023-05-19T01:06:25.347Z,6.15
2023-05-19T01:08:53.233Z,6.65
2023-05-19T01:11:22.101Z,6.82
2023-05-19T01:13:49.744Z,6.65
2023-05-19T01:16:20.465Z,6.70
2023-05-19T01:18:50.861Z,6.53
2023-05-19T01:21:37.174Z,6.75
2023-05-19T01:24:12.760Z,6.88
2023-05-19T01:26:53.198Z,6.05
2023-05-19T01:29:37.176Z,6.03
2023-05-19T01:32:07.275Z,6.72
2023-05-19T01:34:36.016Z,6.43
2023-05-19T01:37:03.936Z,7.07
2023-05-19T01:39:31.887Z,6.53
2023-05-19T01:41:59.592Z,6.32
2023-05-19T01:44:26.996Z,6.32
2023-05-19T01:46:54.990Z,6.75
2023-05-19T01:49:23.679Z,7.15
2023-05-19T01:51:51.054Z,7.40
2023-05-19T01:54:18.422Z,6.65
2023-05-19T01:56:48.782Z,6.47
2023-05-19T01:59:24.489Z,6.50
2023-05-19T02:01:53.522Z,6.68
2023-05-19T02:04:25.803Z,6.30
2023-05-19T02:06:56.293Z,6.47
2023-05-19T02:09:26.422Z,6.22
2023-05-19T02:11:57.517Z,6.85
2023-05-19T02:14:26.246Z,6.68
2023-05-19T02:16:53.836Z,6.38
2023-05-19T02:19:22.190Z,6.57
2023-05-19T02:21:49.639Z,6.55
2023-05-19T02:24:18.570Z,6.20
2023-05-19T02:26:46.148Z,6.90
2023-05-19T02:29:13.505Z,7.07
2023-05-19T02:31:40.916Z,7.00
2023-05-19T02:34:08.650Z,6.43
2023-05-19T02:36:37.235Z,6.78
2023-05-19T02:39:04.677Z,6.57
2023-05-19T02:41:33.422Z,7.00
2023-05-19T02:44:00.775Z,7.13
2023-05-19T02:46:28.147Z,7.15
2023-05-19T02:48:56.427Z,6.93
2023-05-19T02:51:23.761Z,7.10
2023-05-19T02:53:51.199Z,7.07
2023-05-19T02:56:18.536Z,6.53
2023-05-19T02:58:47.227Z,6.53
2023-05-19T03:01:14.561Z,6.72
2023-05-19T03:03:42.113Z,6.78
2023-05-19T03:06:09.652Z,6.63
2023-05-19T03:08:37.699Z,6.38
2023-05-19T03:11:06.345Z,7.55
2023-05-19T03:13:33.692Z,7.25
2023-05-19T03:16:05.201Z,6.75
2023-05-19T03:18:32.619Z,7.25
2023-05-19T03:20:59.977Z,7.65
2023-05-19T03:23:27.823Z,7.13
2023-05-19T03:25:56.166Z,7.35
2023-05-19T03:28:23.880Z,6.95
2023-05-19T03:30:51.227Z,7.05
2023-05-19T03:33:20.128Z,7.13
2023-05-19T03:35:47.721Z,7.07
2023-05-19T03:38:15.082Z,6.90
2023-05-19T03:40:42.510Z,6.68
2023-05-19T03:43:09.830Z,7.65
2023-05-19T03:45:37.224Z,7.68
2023-05-19T03:48:06.053Z,7.15
2023-05-19T03:50:35.035Z,8.35
2023-05-19T03:53:02.475Z,7.95
2023-05-19T03:55:30.502Z,7.97
2023-05-19T03:57:57.926Z,7.35
2023-05-19T04:00:25.310Z,7.13
2023-05-19T04:02:52.738Z,7.38
2023-05-19T04:05:20.178Z,7.80
2023-05-19T04:07:48.862Z,7.63
2023-05-19T04:10:16.263Z,7.13
2023-05-19T04:12:43.743Z,7.65
2023-05-19T04:15:12.288Z,7.03
2023-05-19T04:17:40.131Z,7.97
2023-05-19T04:20:08.072Z,7.50
2023-05-19T04:22:35.399Z,7.85
2023-05-19T04:25:06.782Z,6.90
2023-05-19T04:27:36.626Z,7.07
2023-05-19T04:30:04.082Z,6.68
2023-05-19T04:32:31.505Z,6.68
2023-05-19T04:34:59.205Z,6.75
2023-05-19T04:37:26.639Z,6.40
2023-05-19T04:39:54.175Z,5.50
2023-05-19T04:42:25.939Z,5.45
2023-05-19T04:44:53.269Z,6.03
2023-05-19T04:47:21.341Z,6.25
2023-05-19T04:49:48.709Z,4.57
2023-05-19T04:52:23.649Z,4.93
2023-05-19T04:54:51.011Z,3.80
2023-05-19T04:57:18.441Z,4.07
2023-05-19T04:59:47.206Z,4.10
2023-05-19T05:02:14.622Z,4.47
2023-05-19T05:04:43.955Z,4.07
2023-05-19T05:07:11.591Z,3.95
2023-05-19T05:09:39.025Z,3.80
2023-05-19T05:12:07.890Z,3.70
2023-05-19T05:14:35.831Z,3.92
2023-05-19T05:17:04.965Z,4.25
2023-05-19T05:19:32.675Z,4.10
2023-05-19T05:22:00.446Z,4.57
2023-05-19T05:24:28.157Z,3.65
2023-05-19T05:26:55.607Z,3.88
2023-05-19T05:29:22.995Z,3.92
2023-05-19T05:31:50.341Z,3.90
2023-05-19T05:34:19.164Z,4.28
2023-05-19T05:36:46.523Z,3.80
2023-05-19T05:39:14.002Z,4.20
2023-05-19T05:41:41.418Z,3.60
2023-05-19T05:44:08.797Z,3.85
2023-05-19T05:46:36.220Z,4.10
2023-05-19T05:49:03.907Z,4.05
2023-05-19T05:51:33.999Z,3.97
2023-05-19T05:54:02.903Z,3.97
2023-05-19T05:56:30.484Z,4.00
2023-05-19T05:58:57.857Z,3.28
2023-05-19T06:01:25.897Z,3.80
2023-05-19T06:03:53.236Z,3.45
2023-05-19T06:06:20.586Z,3.70
2023-05-19T06:08:49.387Z,3.30
2023-05-19T06:11:16.800Z,3.25
2023-05-19T06:13:44.185Z,3.60
2023-05-19T06:16:11.718Z,3.50
2023-05-19T06:18:39.088Z,3.50
2023-05-19T06:21:06.939Z,2.70
2023-05-19T06:23:34.294Z,3.72
2023-05-19T06:26:03.253Z,2.75
2023-05-19T06:28:31.566Z,3.70
2023-05-19T06:30:59.887Z,2.90
2023-05-19T06:33:29.136Z,2.92
2023-05-19T06:35:56.802Z,3.08
2023-05-19T06:38:24.142Z,3.25
2023-05-19T06:40:51.538Z,3.05
2023-05-19T06:43:20.410Z,3.55
2023-05-19T06:45:47.775Z,3.13
2023-05-19T06:48:15.171Z,3.85
2023-05-19T06:50:42.522Z,3.72
2023-05-19T06:53:09.867Z,3.45
2023-05-19T06:55:44.077Z,3.28
2023-05-19T06:58:23.358Z,2.72
2023-05-19T07:00:50.756Z,2.92
2023-05-19T07:03:18.175Z,2.90
2023-05-19T07:05:45.768Z,3.55
2023-05-19T07:08:13.097Z,3.33
2023-05-19T07:10:40.573Z,3.63
2023-05-19T07:13:08.003Z,3.20
2023-05-19T07:15:36.703Z,4.07
2023-05-19T07:18:04.154Z,3.53
2023-05-19T07:20:31.959Z,3.40
2023-05-19T07:22:59.535Z,3.60
2023-05-19T07:25:28.523Z,3.95
2023-05-19T07:27:56.166Z,3.17
2023-05-19T07:30:23.566Z,3.08
2023-05-19T07:32:52.321Z,3.42
2023-05-19T07:35:19.777Z,3.20
2023-05-19T07:37:47.118Z,2.97
2023-05-19T07:40:14.574Z,2.95
2023-05-19T07:42:41.957Z,2.67
2023-05-19T07:45:09.792Z,2.80
2023-05-19T07:47:37.251Z,3.63
2023-05-19T07:50:06.463Z,3.42
2023-05-19T07:52:33.832Z,2.72
2023-05-19T07:55:01.177Z,2.80
2023-05-19T07:57:28.570Z,3.10
2023-05-19T07:59:55.910Z,2.95
2023-05-19T08:02:23.312Z,2.60
2023-05-19T08:04:50.774Z,3.05
2023-05-19T08:07:19.486Z,2.80
2023-05-19T08:09:46.834Z,2.58
2023-05-19T08:12:14.227Z,2.40
2023-05-19T08:14:41.569Z,2.50
2023-05-19T08:17:08.904Z,2.55
2023-05-19T08:19:36.228Z,2.95
2023-05-19T08:22:03.545Z,2.33
2023-05-19T08:24:33.681Z,2.78
2023-05-19T08:27:01.226Z,2.10
2023-05-19T08:29:28.679Z,2.45
2023-05-19T08:31:56.053Z,2.20
2023-05-19T08:34:23.360Z,2.17
2023-05-19T08:36:50.753Z,3.00
2023-05-19T08:39:21.087Z,2.53
2023-05-19T08:41:49.786Z,2.42
2023-05-19T08:44:18.982Z,3.67
2023-05-19T08:46:47.466Z,2.53
2023-05-19T08:49:16.523Z,2.42
2023-05-19T08:51:49.828Z,2.65
2023-05-19T08:54:18.063Z,2.40
2023-05-19T08:56:45.674Z,2.13
2023-05-19T08:59:15.045Z,2.33
2023-05-19T09:01:43.558Z,2.95
2023-05-19T09:04:11.064Z,2.40
2023-05-19T09:06:40.984Z,2.67
2023-05-19T09:09:08.517Z,2.58
2023-05-19T09:11:37.378Z,2.15
2023-05-19T09:14:04.732Z,2.38
2023-05-19T09:16:33.793Z,2.33
2023-05-19T09:19:01.834Z,2.35
2023-05-19T09:21:31.420Z,2.08
2023-05-19T09:23:59.017Z,2.53
2023-05-19T09:26:36.757Z,2.50
2023-05-19T09:29:11.213Z,2.60
2023-05-19T09:31:39.961Z,2.40
2023-05-19T09:34:12.861Z,2.38
2023-05-19T09:36:40.876Z,2.38
2023-05-19T09:39:14.195Z,2.88
2023-05-19T09:41:41.553Z,2.25
2023-05-19T09:44:09.164Z,2.35
2023-05-19T09:46:36.762Z,2.65
2023-05-19T09:49:10.584Z,2.17
2023-05-19T09:51:38.147Z,2.25
2023-05-19T09:54:05.507Z,2.42
2023-05-19T09:56:35.142Z,2.50
2023-05-19T09:59:02.916Z,2.35
2023-05-19T10:01:31.334Z,2.00
2023-05-19T10:03:58.930Z,2.53
2023-05-19T10:06:27.758Z,2.70
2023-05-19T10:08:55.547Z,2.67
2023-05-19T10:11:24.211Z,2.30
2023-05-19T10:13:51.961Z,2.45
2023-05-19T10:16:21.837Z,2.33
2023-05-19T10:18:50.758Z,2.40
2023-05-19T10:21:18.519Z,2.33
2023-05-19T10:23:47.355Z,2.22
2023-05-19T10:26:14.912Z,2.13
2023-05-19T10:28:43.885Z,2.25
2023-05-19T10:31:14.398Z,2.17
2023-05-19T10:33:47.655Z,2.30
2023-05-19T10:36:23.771Z,2.42
2023-05-19T10:38:54.283Z,2.20
2023-05-19T10:41:25.957Z,2.00
2023-05-19T10:43:56.928Z,2.55
2023-05-19T10:46:24.981Z,2.30
2023-05-19T10:48:52.445Z,2.17
2023-05-19T10:51:19.894Z,2.20
2023-05-19T10:53:47.297Z,2.45
2023-05-19T10:56:30.016Z,2.20
2023-05-19T10:58:57.480Z,2.28
2023-05-19T11:01:31.034Z,2.30
2023-05-19T11:03:58.591Z,2.42
2023-05-19T11:06:26.910Z,2.05
2023-05-19T11:08:55.505Z,2.10
2023-05-19T11:11:24.238Z,2.53
2023-05-19T11:13:52.251Z,2.42
2023-05-19T11:16:22.744Z,2.55
2023-05-19T11:18:50.780Z,2.30
2023-05-19T11:21:20.497Z,2.30
2023-05-19T11:23:47.898Z,2.10
2023-05-19T11:26:15.306Z,2.50
2023-05-19T11:28:44.227Z,2.38
2023-05-19T11:31:11.836Z,2.30
2023-05-19T11:33:40.204Z,2.00
2023-05-19T11:36:07.728Z,2.38
2023-05-19T11:38:35.754Z,2.08
2023-05-19T11:41:04.441Z,2.33
2023-05-19T11:43:31.785Z,2.20
2023-05-19T11:46:00.542Z,1.92
2023-05-19T11:48:28.000Z,2.30
2023-05-19T11:50:56.685Z,2.17
2023-05-19T11:53:24.116Z,2.17
2023-05-19T11:55:52.160Z,2.00
2023-05-19T11:58:25.897Z,2.30
2023-05-19T12:00:54.075Z,2.15
2023-05-19T12:03:26.356Z,1.67
2023-05-19T12:05:54.510Z,2.20
2023-05-19T12:08:22.920Z,1.98
2023-05-19T12:10:50.798Z,1.95
2023-05-19T12:13:18.224Z,1.98
2023-05-19T12:15:45.600Z,2.00
2023-05-19T12:18:13.017Z,2.13
2023-05-19T12:20:41.949Z,2.42
2023-05-19T12:23:09.720Z,2.35
2023-05-19T12:25:38.325Z,2.28
2023-05-19T12:28:05.993Z,2.47
2023-05-19T12:30:34.827Z,2.00
2023-05-19T12:33:03.181Z,2.10
2023-05-19T12:35:32.749Z,1.70
2023-05-19T12:38:05.377Z,2.10
2023-05-19T12:40:34.238Z,1.83
2023-05-19T12:43:01.837Z,2.28
2023-05-19T12:45:29.634Z,2.17
2023-05-19T12:47:57.078Z,2.00
2023-05-19T12:50:30.722Z,2.15
2023-05-19T12:52:59.623Z,1.77
2023-05-19T12:55:28.406Z,1.92
2023-05-19T12:57:57.781Z,2.40
2023-05-19T13:00:29.556Z,2.17
2023-05-19T13:02:57.908Z,1.73
2023-05-19T13:05:25.484Z,1.85
2023-05-19T13:07:56.872Z,1.95
2023-05-19T13:10:26.854Z,2.35
2023-05-19T13:12:56.181Z,2.15
2023-05-19T13:15:24.350Z,2.40
2023-05-19T13:17:51.856Z,1.92
2023-05-19T13:20:19.247Z,2.28
2023-05-19T13:22:46.638Z,1.95
2023-05-19T13:25:13.991Z,2.40
2023-05-19T13:27:41.574Z,2.50
2023-05-19T13:30:10.853Z,2.53
2023-05-19T13:32:38.547Z,2.22
2023-05-19T13:35:06.542Z,2.20
2023-05-19T13:37:34.001Z,2.20
2023-05-19T13:40:01.445Z,2.03
2023-05-19T13:42:28.874Z,2.08
2023-05-19T13:44:56.375Z,2.20
2023-05-19T13:47:25.238Z,2.40
2023-05-19T13:49:52.760Z,2.30
2023-05-19T13:52:21.504Z,2.13
2023-05-19T13:54:48.985Z,2.03
2023-05-19T13:57:16.398Z,2.35
2023-05-19T13:59:57.751Z,2.13
2023-05-19T14:02:31.118Z,1.95
2023-05-19T14:04:58.743Z,2.00
2023-05-19T14:07:26.208Z,2.20
2023-05-19T14:09:53.645Z,2.15
2023-05-19T14:12:27.656Z,1.90
2023-05-19T14:14:58.874Z,2.17
2023-05-19T14:17:28.046Z,2.65
2023-05-19T14:19:56.819Z,2.42
2023-05-19T14:22:24.209Z,1.85
2023-05-19T14:24:51.562Z,2.42
2023-05-19T14:27:18.916Z,2.70
2023-05-19T14:29:46.237Z,2.22
2023-05-19T14:32:14.044Z,2.08
2023-05-19T14:34:41.385Z,2.00
2023-05-19T14:37:10.016Z,2.53
2023-05-19T14:39:37.382Z,2.17
2023-05-19T14:42:04.805Z,1.65
2023-05-19T14:44:32.782Z,2.05
2023-05-19T14:47:00.847Z,2.20
2023-05-19T14:49:28.251Z,1.95
2023-05-19T14:51:55.563Z,1.88
2023-05-19T14:54:24.458Z,2.20
2023-05-19T14:56:51.981Z,1.90
2023-05-19T14:59:19.340Z,2.20
2023-05-19T15:01:46.664Z,2.30
2023-05-19T15:04:14.064Z,2.20
2023-05-19T15:06:41.521Z,2.00
2023-05-19T15:09:09.335Z,1.83
2023-05-19T15:11:38.194Z,2.25
2023-05-19T15:14:05.523Z,2.28
2023-05-19T15:16:32.855Z,2.30
2023-05-19T15:19:00.274Z,2.13
2023-05-19T15:21:28.100Z,1.95
2023-05-19T15:23:55.457Z,2.20
2023-05-19T15:26:22.828Z,2.03
2023-05-19T15:28:52.667Z,2.13
2023-05-19T15:31:20.079Z,2.03
2023-05-19T15:33:47.442Z,1.88
2023-05-19T15:36:16.373Z,1.90
2023-05-19T15:38:43.746Z,1.83
2023-05-19T15:41:11.328Z,2.00
2023-05-19T15:43:38.742Z,2.03
2023-05-19T15:46:07.468Z,1.52
2023-05-19T15:48:34.979Z,1.80
2023-05-19T15:51:02.638Z,1.65
2023-05-19T15:53:29.959Z,2.05
2023-05-19T15:55:57.812Z,1.80
2023-05-19T15:58:25.240Z,1.90
2023-05-19T16:00:52.648Z,1.80
2023-05-19T16:03:22.357Z,1.80
2023-05-19T16:05:49.795Z,2.00
2023-05-19T16:08:17.117Z,1.70
2023-05-19T16:10:44.458Z,1.77
2023-05-19T16:13:12.989Z,1.70
2023-05-19T16:15:40.530Z,1.65
2023-05-19T16:18:08.009Z,1.60
2023-05-19T16:20:36.806Z,1.77
2023-05-19T16:23:04.154Z,1.52
2023-05-19T16:25:31.848Z,1.60
2023-05-19T16:27:59.244Z,2.05
2023-05-19T16:30:27.920Z,1.83
2023-05-19T16:32:55.425Z,1.75
2023-05-19T16:35:22.861Z,1.98
2023-05-19T16:37:51.648Z,2.00
2023-05-19T16:40:19.712Z,2.10
2023-05-19T16:42:47.059Z,1.63
2023-05-19T16:45:17.242Z,1.90
2023-05-19T16:47:44.639Z,1.80
2023-05-19T16:50:12.782Z,1.80
2023-05-19T16:52:40.169Z,1.58
2023-05-19T16:55:09.495Z,1.70
2023-05-19T16:57:36.891Z,2.20
2023-05-19T17:00:04.525Z,1.70
2023-05-19T17:02:32.004Z,2.08
2023-05-19T17:04:59.537Z,1.67
2023-05-19T17:07:28.935Z,1.70
2023-05-19T17:09:56.430Z,1.92
2023-05-19T17:12:25.148Z,1.80
2023-05-19T17:14:52.905Z,1.60
2023-05-19T17:17:20.269Z,2.05
2023-05-19T17:19:47.699Z,1.70
2023-05-19T17:22:15.030Z,2.17
2023-05-19T17:24:42.375Z,1.80
2023-05-19T17:27:09.712Z,1.80
2023-05-19T17:29:38.395Z,1.40
2023-05-19T17:32:05.985Z,1.88
2023-05-19T17:34:33.382Z,2.10
2023-05-19T17:37:01.218Z,2.20
2023-05-19T17:39:28.595Z,1.70
2023-05-19T17:41:56.237Z,2.03
2023-05-19T17:44:23.610Z,1.80
2023-05-19T17:46:52.342Z,2.05
2023-05-19T17:49:19.884Z,2.10
2023-05-19T17:51:47.492Z,2.28
2023-05-19T17:54:15.164Z,1.85
2023-05-19T17:56:43.270Z,2.20
2023-05-19T17:59:10.912Z,1.77
2023-05-19T18:01:38.485Z,1.98
2023-05-19T18:04:08.023Z,1.77
2023-05-19T18:06:37.590Z,1.60
2023-05-19T18:09:08.772Z,1.77
2023-05-19T18:11:36.183Z,2.00
2023-05-19T18:14:03.549Z,1.80
2023-05-19T18:16:30.914Z,1.70
2023-05-19T18:18:58.417Z,1.92
2023-05-19T18:21:27.246Z,1.90
2023-05-19T18:23:54.605Z,1.98
2023-05-19T18:26:22.280Z,2.10
2023-05-19T18:28:49.631Z,1.67
2023-05-19T18:31:19.798Z,1.80
2023-05-19T18:33:47.673Z,1.88
2023-05-19T18:36:16.477Z,2.00
2023-05-19T18:38:47.016Z,1.98
2023-05-19T18:41:14.512Z,2.10
2023-05-19T18:43:41.842Z,2.00
2023-05-19T18:46:09.319Z,2.08
2023-05-19T18:48:36.950Z,1.75
2023-05-19T18:51:04.881Z,2.05
2023-05-19T18:53:33.660Z,2.00
2023-05-19T18:56:02.351Z,1.80
2023-05-19T18:58:29.726Z,2.10
2023-05-19T19:00:58.476Z,2.47
2023-05-19T19:03:26.448Z,2.15
2023-05-19T19:05:57.002Z,1.70
2023-05-19T19:08:24.543Z,1.85
2023-05-19T19:10:52.319Z,2.15
2023-05-19T19:13:22.373Z,1.98
2023-05-19T19:15:49.709Z,2.17
2023-05-19T19:18:17.091Z,1.92
2023-05-19T19:20:44.739Z,2.00
2023-05-19T19:23:12.084Z,2.10
2023-05-19T19:25:39.476Z,2.58
2023-05-19T19:28:06.814Z,3.22
2023-05-19T19:30:35.771Z,2.67
2023-05-19T19:33:04.715Z,2.30
2023-05-19T19:35:33.492Z,2.50
2023-05-19T19:38:00.851Z,2.13
2023-05-19T19:40:29.180Z,2.13
2023-05-19T19:42:56.552Z,2.33
2023-05-19T19:45:24.039Z,2.20
2023-05-19T19:47:52.826Z,2.45
2023-05-19T19:50:20.284Z,2.33
2023-05-19T19:52:47.621Z,1.90
2023-05-19T19:55:15.083Z,2.72
2023-05-19T19:57:44.814Z,2.42
2023-05-19T20:00:12.870Z,2.30
2023-05-19T20:02:55.370Z,2.35
2023-05-19T20:05:29.437Z,2.58
2023-05-19T20:07:56.777Z,2.28
2023-05-19T20:10:24.142Z,2.55
2023-05-19T20:12:51.718Z,2.50
2023-05-19T20:15:19.212Z,2.47
2023-05-19T20:17:46.614Z,2.35
2023-05-19T20:20:14.539Z,2.85
2023-05-19T20:22:44.248Z,3.03
2023-05-19T20:25:12.036Z,2.33
2023-05-19T20:27:39.361Z,3.05
2023-05-19T20:30:07.424Z,2.60
2023-05-19T20:32:35.030Z,2.67
2023-05-19T20:35:02.385Z,2.38
2023-05-19T20:37:29.698Z,2.35
2023-05-19T20:39:58.473Z,2.50
2023-05-19T20:42:25.824Z,2.08
2023-05-19T20:44:53.195Z,2.20
2023-05-19T20:47:20.970Z,2.15
2023-05-19T20:49:48.561Z,2.10
2023-05-19T20:52:16.114Z,1.80
2023-05-19T20:54:43.461Z,2.30
2023-05-19T20:57:12.568Z,2.58
2023-05-19T20:59:40.137Z,2.83
2023-05-19T21:02:07.530Z,2.20
2023-05-19T21:04:34.982Z,2.05
2023-05-19T21:07:02.579Z,2.13
2023-05-19T21:09:29.984Z,2.05
2023-05-19T21:11:57.305Z,2.58
2023-05-19T21:14:26.361Z,1.95
2023-05-19T21:16:54.345Z,2.55
2023-05-19T21:19:21.897Z,2.38
2023-05-19T21:21:49.629Z,1.98
2023-05-19T21:24:17.329Z,2.00
2023-05-19T21:26:44.734Z,2.20
2023-05-19T21:29:12.070Z,2.30
2023-05-19T21:31:41.040Z,1.90
2023-05-19T21:34:08.464Z,2.25
2023-05-19T21:36:36.165Z,2.38
2023-05-19T21:39:03.620Z,2.22
2023-05-19T21:41:31.086Z,2.25
2023-05-19T21:43:58.419Z,2.42
2023-05-19T21:46:27.784Z,1.98
2023-05-19T21:48:56.507Z,2.28
2023-05-19T21:51:23.878Z,2.38
2023-05-19T21:53:51.232Z,2.50
2023-05-19T21:56:18.640Z,2.17
2023-05-19T21:58:46.090Z,2.38
2023-05-19T22:01:14.216Z,2.45
2023-05-19T22:03:41.958Z,2.53
2023-05-19T22:06:10.843Z,2.40
2023-05-19T22:08:38.201Z,2.17
2023-05-19T22:11:05.774Z,2.50
2023-05-19T22:13:33.836Z,2.50
2023-05-19T22:16:01.289Z,2.60
2023-05-19T22:18:28.652Z,2.47
2023-05-19T22:20:56.024Z,2.17
2023-05-19T22:23:24.705Z,2.45
2023-05-19T22:25:52.052Z,2.47
2023-05-19T22:28:19.435Z,2.60
2023-05-19T22:30:46.789Z,2.50
2023-05-19T22:33:14.602Z,2.88
2023-05-19T22:35:42.520Z,2.55
2023-05-19T22:38:10.598Z,2.30
2023-05-19T22:40:39.601Z,2.35
2023-05-19T22:43:06.950Z,2.60
2023-05-19T22:45:34.863Z,3.03
2023-05-19T22:48:02.450Z,2.65
2023-05-19T22:50:29.782Z,2.70
2023-05-19T22:52:57.123Z,2.75
2023-05-19T22:55:24.549Z,2.70
2023-05-19T22:57:53.225Z,2.90
2023-05-19T23:00:20.994Z,2.38
2023-05-19T23:02:48.452Z,2.72
2023-05-19T23:05:15.859Z,2.42
2023-05-19T23:07:43.258Z,2.85
2023-05-19T23:10:11.066Z,3.10
2023-05-19T23:12:39.786Z,2.70
2023-05-19T23:15:09.444Z,2.75
2023-05-19T23:17:36.971Z,2.63
2023-05-19T23:20:05.657Z,2.90
2023-05-19T23:22:33.042Z,3.15
2023-05-19T23:25:01.773Z,3.05
2023-05-19T23:27:29.098Z,2.95
2023-05-19T23:29:56.459Z,3.30
2023-05-19T23:32:25.186Z,3.00
2023-05-19T23:34:52.567Z,2.90
2023-05-19T23:37:19.974Z,2.85
2023-05-19T23:39:47.328Z,2.90
2023-05-19T23:42:14.732Z,2.60
2023-05-19T23:44:42.084Z,2.75
2023-05-19T23:47:09.716Z,3.15
2023-05-19T23:49:38.523Z,2.75
2023-05-19T23:52:06.129Z,2.92
2023-05-19T23:54:33.455Z,2.30
2023-05-19T23:57:02.362Z,2.60
2023-05-19T23:59:29.700Z,2.60
